createdAt,value
2018-11-22T00:00:53.874Z,100710.83
2018-11-22T00:03:54.506Z,100711.78
2018-11-22T00:06:52.992Z,100712.89
2018-11-22T00:09:50.352Z,100722.16
2018-11-22T00:12:48.095Z,100712.08
2018-11-22T00:15:45.534Z,100717.41
2018-11-22T00:18:42.973Z,100712.58
2018-11-22T00:21:40.929Z,100716.02
2018-11-22T00:24:39.952Z,100714.84
2018-11-22T00:27:37.676Z,100718.51
2018-11-22T00:30:35.249Z,100721.59
2018-11-22T00:33:33.306Z,100721.82
2018-11-22T00:36:31.037Z,100722.29
2018-11-22T00:39:28.909Z,100722.66
2018-11-22T00:42:26.451Z,100722.02
2018-11-22T00:45:25.761Z,100724.02
2018-11-22T00:48:23.624Z,100728.44
2018-11-22T00:51:21.215Z,100731.89
2018-11-22T00:54:19.304Z,100726.89
2018-11-22T00:57:17.277Z,100732.39
2018-11-22T01:00:18.018Z,100734.81
2018-11-22T01:03:15.642Z,100732.23
2018-11-22T01:06:13.337Z,100729.72
2018-11-22T01:09:15.033Z,100730.91
2018-11-22T01:12:13.150Z,100729.84
2018-11-22T01:15:11.633Z,100725.70
2018-11-22T01:18:09.222Z,100726.63
2018-11-22T01:21:07.116Z,100720.23
2018-11-22T01:24:04.580Z,100722.31
2018-11-22T01:27:13.520Z,100729.04
2018-11-22T01:30:18.515Z,100718.82
2018-11-22T01:33:17.013Z,100718.91
2018-11-22T01:36:14.314Z,100718.72
2018-11-22T01:39:13.664Z,100719.90
2018-11-22T01:42:11.360Z,100716.09
2018-11-22T01:45:14.315Z,100715.58
2018-11-22T01:48:12.137Z,100719.30
2018-11-22T01:51:10.056Z,100715.09
2018-11-22T01:54:11.106Z,100721.25
2018-11-22T01:57:09.592Z,100720.77
2018-11-22T02:00:15.751Z,100720.77
2018-11-22T02:03:14.153Z,100717.19
2018-11-22T02:06:11.980Z,100719.56
2018-11-22T02:09:12.308Z,100720.23
2018-11-22T02:12:10.424Z,100713.61
2018-11-22T02:15:12.679Z,100709.70
2018-11-22T02:18:10.662Z,100710.26
2018-11-22T02:21:08.844Z,100713.98
2018-11-22T02:24:06.546Z,100707.97
2018-11-22T02:27:04.435Z,100712.77
2018-11-22T02:30:01.799Z,100709.84
2018-11-22T02:33:00.828Z,100706.23
2018-11-22T02:35:58.853Z,100709.69
2018-11-22T02:38:57.208Z,100714.50
2018-11-22T02:41:54.934Z,100712.83
2018-11-22T02:44:52.822Z,100718.06
2018-11-22T02:47:50.854Z,100721.63
2018-11-22T02:50:48.659Z,100716.56
2018-11-22T02:53:46.635Z,100718.72
2018-11-22T02:56:44.577Z,100720.34
2018-11-22T02:59:42.264Z,100710.25
2018-11-22T03:02:40.096Z,100709.44
2018-11-22T03:05:37.590Z,100712.79
2018-11-22T03:08:35.792Z,100710.12
2018-11-22T03:11:34.153Z,100714.44
2018-11-22T03:14:31.540Z,100715.92
2018-11-22T03:17:29.128Z,100710.33
2018-11-22T03:20:27.045Z,100712.20
2018-11-22T03:23:24.383Z,100711.81
2018-11-22T03:26:21.815Z,100709.47
2018-11-22T03:29:19.658Z,100705.28
2018-11-22T03:32:17.403Z,100708.36
2018-11-22T03:35:17.094Z,100707.01
2018-11-22T03:38:15.124Z,100708.88
2018-11-22T03:41:13.492Z,100709.30
2018-11-22T03:44:10.954Z,100706.02
2018-11-22T03:47:08.618Z,100709.78
2018-11-22T03:50:08.333Z,100708.27
2018-11-22T03:53:06.286Z,100701.34
2018-11-22T03:56:03.918Z,100702.77
2018-11-22T03:59:01.306Z,100698.61
2018-11-22T04:01:59.341Z,100695.37
2018-11-22T04:04:57.424Z,100695.31
2018-11-22T04:07:55.079Z,100693.89
2018-11-22T04:10:52.643Z,100697.59
2018-11-22T04:13:50.083Z,100702.23
2018-11-22T04:16:47.778Z,100704.87
2018-11-22T04:19:45.444Z,100704.18
2018-11-22T04:22:43.445Z,100705.64
2018-11-22T04:25:41.240Z,100707.69
2018-11-22T04:28:39.532Z,100701.58
2018-11-22T04:31:37.318Z,100702.88
2018-11-22T04:34:35.205Z,100704.25
2018-11-22T04:37:33.177Z,100701.73
2018-11-22T04:40:32.030Z,100706.06
2018-11-22T04:43:29.923Z,100708.28
2018-11-22T04:46:27.438Z,100702.61
2018-11-22T04:49:25.234Z,100701.63
2018-11-22T04:52:22.817Z,100701.13
2018-11-22T04:55:20.353Z,100707.17
2018-11-22T04:58:18.859Z,100705.84
2018-11-22T05:01:16.040Z,100709.30
2018-11-22T05:04:15.125Z,100701.58
2018-11-22T05:07:13.070Z,100705.16
2018-11-22T05:10:17.218Z,100706.48
2018-11-22T05:13:14.951Z,100708.88
2018-11-22T05:16:15.396Z,100707.95
2018-11-22T05:19:13.243Z,100707.20
2018-11-22T05:22:11.373Z,100706.38
2018-11-22T05:25:13.408Z,100708.98
2018-11-22T05:28:11.470Z,100711.06
2018-11-22T05:31:09.534Z,100714.98
2018-11-22T05:34:07.406Z,100711.08
2018-11-22T05:37:05.293Z,100714.84
2018-11-22T05:40:03.223Z,100720.09
2018-11-22T05:43:01.324Z,100717.46
2018-11-22T05:45:58.910Z,100715.78
2018-11-22T05:48:56.197Z,100719.16
2018-11-22T05:51:56.293Z,100721.42
2018-11-22T05:54:53.545Z,100725.23
2018-11-22T05:57:51.715Z,100721.78
2018-11-22T06:00:49.382Z,100721.57
2018-11-22T06:03:47.248Z,100730.62
2018-11-22T06:06:47.988Z,100733.02
2018-11-22T06:09:47.747Z,100732.66
2018-11-22T06:12:45.514Z,100736.92
2018-11-22T06:15:42.985Z,100740.98
2018-11-22T06:18:40.806Z,100740.06
2018-11-22T06:21:38.588Z,100736.84
2018-11-22T06:24:35.899Z,100738.81
2018-11-22T06:27:33.591Z,100742.14
2018-11-22T06:30:32.608Z,100739.16
2018-11-22T06:33:30.363Z,100744.52
2018-11-22T06:36:27.968Z,100750.47
2018-11-22T06:39:26.131Z,100747.29
2018-11-22T06:42:24.116Z,100753.95
2018-11-22T06:45:25.689Z,100752.81
2018-11-22T06:48:23.634Z,100754.25
2018-11-22T06:51:21.708Z,100754.25
2018-11-22T06:54:20.044Z,100751.58
2018-11-22T06:57:19.758Z,100748.91
2018-11-22T07:00:22.211Z,100748.52
2018-11-22T07:03:20.341Z,100756.58
2018-11-22T07:06:19.069Z,100756.86
2018-11-22T07:09:16.715Z,100760.03
2018-11-22T07:12:15.403Z,100758.70
2018-11-22T07:15:16.908Z,100759.59
2018-11-22T07:18:14.947Z,100761.59
2018-11-22T07:21:13.006Z,100767.55
2018-11-22T07:24:10.980Z,100766.27
2018-11-22T07:27:08.472Z,100764.73
2018-11-22T07:30:07.570Z,100763.55
2018-11-22T07:33:05.660Z,100764.14
2018-11-22T07:36:03.232Z,100765.64
2018-11-22T07:39:00.997Z,100764.39
2018-11-22T07:42:00.935Z,100770.58
2018-11-22T07:45:00.816Z,100758.61
2018-11-22T07:47:59.519Z,100771.02
2018-11-22T07:50:57.059Z,100769.77
2018-11-22T07:53:54.511Z,100775.52
2018-11-22T07:56:52.287Z,100777.61
2018-11-22T07:59:50.169Z,100774.35
2018-11-22T08:02:48.590Z,100777.51
2018-11-22T08:05:46.183Z,100777.23
2018-11-22T08:08:43.967Z,100777.33
2018-11-22T08:11:44.436Z,100780.13
2018-11-22T08:14:42.503Z,100777.11
2018-11-22T08:17:40.259Z,100780.63
2018-11-22T08:20:40.372Z,100778.70
2018-11-22T08:23:37.744Z,100775.70
2018-11-22T08:26:35.952Z,100780.05
2018-11-22T08:29:34.548Z,100780.56
2018-11-22T08:32:31.990Z,100780.43
2018-11-22T08:35:29.621Z,100781.77
2018-11-22T08:38:27.115Z,100790.16
2018-11-22T08:41:24.967Z,100790.94
2018-11-22T08:44:23.836Z,100782.36
2018-11-22T08:47:21.240Z,100792.69
2018-11-22T08:50:20.600Z,100796.77
2018-11-22T08:53:17.987Z,100802.47
2018-11-22T08:56:16.046Z,100803.42
2018-11-22T08:59:13.576Z,100812.67
2018-11-22T09:02:11.466Z,100813.55
2018-11-22T09:05:11.910Z,100808.97
2018-11-22T09:08:10.648Z,100812.25
2018-11-22T09:11:08.156Z,100812.50
2018-11-22T09:14:06.633Z,100812.11
2018-11-22T09:17:03.872Z,100814.53
2018-11-22T09:20:01.140Z,100817.26
2018-11-22T09:22:58.553Z,100819.80
2018-11-22T09:25:56.369Z,100822.44
2018-11-22T09:28:55.079Z,100815.66
2018-11-22T09:31:53.831Z,100815.12
2018-11-22T09:34:52.730Z,100819.55
2018-11-22T09:37:50.614Z,100808.86
2018-11-22T09:40:48.202Z,100817.78
2018-11-22T09:43:45.662Z,100813.06
2018-11-22T09:46:43.411Z,100814.05
2018-11-22T09:49:41.867Z,100814.51
2018-11-22T09:52:40.253Z,100812.41
2018-11-22T09:55:38.432Z,100812.25
2018-11-22T09:58:36.533Z,100803.59
2018-11-22T10:01:34.518Z,100803.80
2018-11-22T10:04:32.302Z,100802.56
2018-11-22T10:07:29.700Z,100804.97
2018-11-22T10:10:29.063Z,100809.16
2018-11-22T10:13:27.425Z,100805.61
2018-11-22T10:16:25.399Z,100810.28
2018-11-22T10:19:23.229Z,100807.28
2018-11-22T10:22:21.022Z,100806.13
2018-11-22T10:25:18.611Z,100802.19
2018-11-22T10:28:16.851Z,100803.67
2018-11-22T10:31:16.965Z,100805.21
2018-11-22T10:34:16.881Z,100805.03
2018-11-22T10:37:14.161Z,100804.41
2018-11-22T10:40:19.052Z,100808.67
2018-11-22T10:43:16.950Z,100802.80
2018-11-22T10:46:14.414Z,100800.56
2018-11-22T10:49:11.910Z,100799.93
2018-11-22T10:52:09.761Z,100801.14
2018-11-22T10:55:10.485Z,100800.84
2018-11-22T10:58:08.571Z,100801.11
2018-11-22T11:01:23.620Z,100795.78
2018-11-22T11:04:32.631Z,100787.17
2018-11-22T11:07:48.651Z,100792.17
2018-11-22T11:10:47.338Z,100796.37
2018-11-22T11:13:44.943Z,100787.66
2018-11-22T11:16:42.710Z,100788.05
2018-11-22T11:19:40.581Z,100782.17
2018-11-22T11:22:38.410Z,100787.70
2018-11-22T11:25:35.950Z,100788.86
2018-11-22T11:28:34.258Z,100784.91
2018-11-22T12:18:01.324Z,100774.00
2018-11-22T12:20:43.641Z,100772.00
2018-11-22T12:23:26.148Z,100770.00
2018-11-22T12:26:08.139Z,100766.00
2018-11-22T12:28:49.823Z,100770.00
2018-11-22T12:31:31.660Z,100771.00
2018-11-22T12:34:14.602Z,100767.00
2018-11-22T12:37:00.857Z,100767.00
2018-11-22T12:39:42.734Z,100761.00
2018-11-22T12:42:24.586Z,100763.00
2018-11-22T12:45:09.743Z,100762.00
2018-11-22T12:47:51.557Z,100759.00
2018-11-22T12:50:33.389Z,100755.00
2018-11-22T12:53:15.107Z,100756.00
2018-11-22T12:55:57.851Z,100754.00
2018-11-22T12:58:39.707Z,100758.00
2018-11-22T13:01:21.793Z,100752.00
2018-11-22T13:04:03.747Z,100751.00
2018-11-22T13:06:45.832Z,100750.00
2018-11-22T13:09:28.116Z,100752.00
2018-11-22T13:12:10.632Z,100756.00
2018-11-22T13:14:53.052Z,100748.00
2018-11-22T13:17:34.981Z,100750.00
2018-11-22T13:20:18.570Z,100751.00
2018-11-22T13:23:00.759Z,100746.00
2018-11-22T13:25:42.553Z,100745.00
2018-11-22T13:28:24.863Z,100747.00
2018-11-22T13:31:07.272Z,100747.00
2018-11-22T13:33:49.585Z,100752.00
2018-11-22T13:36:31.519Z,100751.00
2018-11-22T13:39:13.254Z,100752.00
2018-11-22T13:41:55.894Z,100757.00
2018-11-22T13:44:39.898Z,100763.00
2018-11-22T13:47:21.736Z,100757.00
2018-11-22T13:50:04.746Z,100759.00
2018-11-22T13:52:48.123Z,100753.00
2018-11-22T13:55:30.247Z,100758.00
2018-11-22T13:58:12.480Z,100755.00
2018-11-22T14:00:54.657Z,100758.00
2018-11-22T14:03:36.954Z,100765.00
2018-11-22T14:06:22.350Z,100764.00
2018-11-22T14:09:07.748Z,100763.00
2018-11-22T14:11:49.509Z,100766.00
2018-11-22T14:14:32.738Z,100766.00
2018-11-22T14:17:14.764Z,100771.00
2018-11-22T14:19:57.491Z,100768.00
2018-11-22T14:22:39.995Z,100764.00
2018-11-22T14:25:21.985Z,100764.00
2018-11-22T14:28:04.885Z,100770.00
2018-11-22T14:30:47.047Z,100778.00
2018-11-22T14:33:29.194Z,100773.00
2018-11-22T14:36:11.807Z,100774.00
2018-11-22T14:38:53.914Z,100773.00
2018-11-22T14:41:35.764Z,100780.00
2018-11-22T14:44:17.593Z,100779.00
2018-11-22T14:46:59.480Z,100779.00
2018-11-22T14:49:42.853Z,100779.00
2018-11-22T14:52:24.952Z,100781.00
2018-11-22T14:55:07.934Z,100777.00
2018-11-22T14:57:49.545Z,100773.00
2018-11-22T15:00:31.725Z,100767.00
2018-11-22T15:03:14.500Z,100775.00
2018-11-22T15:05:57.264Z,100778.00
2018-11-22T15:08:39.012Z,100779.00
2018-11-22T15:11:21.521Z,100780.00
2018-11-22T15:14:03.229Z,100777.00
2018-11-22T15:16:45.499Z,100785.00
2018-11-22T15:19:27.367Z,100780.00
2018-11-22T15:22:09.352Z,100775.00
2018-11-22T15:24:51.312Z,100780.00
2018-11-22T15:27:33.858Z,100772.00
2018-11-22T15:30:17.406Z,100780.00
2018-11-22T15:33:00.043Z,100779.00
2018-11-22T15:35:42.202Z,100778.00
2018-11-22T15:38:24.015Z,100778.00
2018-11-22T15:41:06.476Z,100786.00
2018-11-22T15:43:48.920Z,100779.00
2018-11-22T15:46:31.191Z,100780.00
2018-11-22T15:49:14.039Z,100781.00
2018-11-22T15:51:55.972Z,100785.00
2018-11-22T15:54:37.801Z,100787.00
2018-11-22T15:57:19.779Z,100787.00
2018-11-22T16:00:02.372Z,100784.00
2018-11-22T16:02:44.880Z,100780.00
2018-11-22T16:05:27.847Z,100784.00
2018-11-22T16:08:09.660Z,100787.00
2018-11-22T16:10:52.189Z,100789.00
2018-11-22T16:13:34.135Z,100787.00
2018-11-22T16:16:15.823Z,100788.00
2018-11-22T16:18:57.931Z,100786.00
2018-11-22T16:21:40.084Z,100793.00
2018-11-22T16:24:22.216Z,100793.00
2018-11-22T16:27:05.087Z,100798.00
2018-11-22T16:29:47.682Z,100791.00
2018-11-22T16:32:29.626Z,100796.00
2018-11-22T16:35:13.266Z,100789.00
2018-11-22T16:37:55.699Z,100795.00
2018-11-22T16:40:38.253Z,100792.00
2018-11-22T16:43:20.428Z,100797.00
2018-11-22T16:46:02.791Z,100791.00
2018-11-22T16:48:45.057Z,100793.00
2018-11-22T16:51:26.981Z,100796.00
2018-11-22T16:54:09.663Z,100792.00
2018-11-22T16:56:51.744Z,100793.00
2018-11-22T16:59:33.773Z,100791.00
2018-11-22T17:02:17.124Z,100791.00
2018-11-22T17:04:58.958Z,100780.00
2018-11-22T17:07:42.316Z,100788.00
2018-11-22T17:10:26.156Z,100787.00
2018-11-22T17:13:08.024Z,100792.00
2018-11-22T17:15:50.299Z,100795.00
2018-11-22T17:18:32.122Z,100802.00
2018-11-22T17:21:14.530Z,100804.00
2018-11-22T17:23:56.510Z,100802.00
2018-11-22T17:26:38.350Z,100809.00
2018-11-22T17:29:21.026Z,100806.00
2018-11-22T17:32:03.521Z,100797.00
2018-11-22T17:34:45.714Z,100804.00
2018-11-22T17:37:28.355Z,100804.00
2018-11-22T17:40:21.942Z,100801.00
2018-11-22T17:43:04.299Z,100805.00
2018-11-22T17:45:48.051Z,100799.00
2018-11-22T17:48:30.163Z,100799.00
2018-11-22T17:51:11.946Z,100800.00
2018-11-22T17:53:54.942Z,100800.00
2018-11-22T17:56:37.612Z,100799.00
2018-11-22T17:59:19.473Z,100794.00
2018-11-22T18:02:02.011Z,100797.00
2018-11-22T18:04:44.118Z,100799.00
2018-11-22T18:07:26.076Z,100799.00
2018-11-22T18:10:11.397Z,100794.00
2018-11-22T18:12:54.418Z,100797.00
2018-11-22T18:16:11.698Z,100799.00
2018-11-22T18:18:53.797Z,100798.00
2018-11-22T18:21:35.855Z,100796.00
2018-11-22T18:24:17.602Z,100793.00
2018-11-22T18:26:59.455Z,100789.00
2018-11-22T18:29:41.589Z,100792.00
2018-11-22T18:32:23.848Z,100796.00
2018-11-22T18:35:07.063Z,100797.00
2018-11-22T18:37:49.067Z,100796.00
2018-11-22T18:40:33.059Z,100796.00
2018-11-22T18:43:15.787Z,100794.00
2018-11-22T18:45:57.793Z,100796.00
2018-11-22T18:48:40.119Z,100795.00
2018-11-22T18:51:23.106Z,100782.00
2018-11-22T18:54:05.264Z,100794.00
2018-11-22T18:56:47.421Z,100792.00
2018-11-22T18:59:29.423Z,100796.00
2018-11-22T19:02:12.150Z,100785.00
2018-11-22T19:04:54.659Z,100785.00
2018-11-22T19:07:37.622Z,100786.00
2018-11-22T19:10:23.558Z,100786.00
2018-11-22T19:13:07.288Z,100797.00
2018-11-22T19:15:49.749Z,100800.00
2018-11-22T19:18:32.107Z,100799.00
2018-11-22T19:21:14.509Z,100805.00
2018-11-22T19:23:56.566Z,100804.00
2018-11-22T19:26:38.671Z,100804.00
2018-11-22T19:29:20.946Z,100805.00
2018-11-22T19:32:03.415Z,100801.00
2018-11-22T19:34:45.618Z,100803.00
2018-11-22T19:37:28.597Z,100798.00
2018-11-22T19:40:15.365Z,100806.00
2018-11-22T19:42:59.078Z,100799.00
2018-11-22T19:45:44.163Z,100800.00
2018-11-22T19:48:25.980Z,100803.00
2018-11-22T19:51:09.886Z,100801.00
2018-11-22T19:53:53.787Z,100808.00
2018-11-22T19:56:36.094Z,100808.00
2018-11-22T19:59:19.289Z,100809.00
2018-11-22T20:02:01.264Z,100807.00
2018-11-22T20:04:43.296Z,100806.00
2018-11-22T20:07:25.722Z,100812.00
2018-11-22T20:10:16.225Z,100807.00
2018-11-22T20:12:57.956Z,100815.00
2018-11-22T20:15:40.402Z,100819.00
2018-11-22T20:18:23.668Z,100820.00
2018-11-22T20:21:06.481Z,100823.00
2018-11-22T20:23:48.620Z,100819.00
2018-11-22T20:26:30.993Z,100818.00
2018-11-22T20:29:13.152Z,100816.00
2018-11-22T20:31:55.564Z,100821.00
2018-11-22T20:34:37.895Z,100822.00
2018-11-22T20:37:19.874Z,100819.00
2018-11-22T20:40:01.796Z,100822.00
2018-11-22T20:42:44.013Z,100819.00
2018-11-22T20:45:26.791Z,100818.00
2018-11-22T20:48:09.014Z,100815.00
2018-11-22T20:50:51.318Z,100818.00
2018-11-22T20:53:33.806Z,100815.00
2018-11-22T20:56:16.530Z,100816.00
2018-11-22T20:58:59.820Z,100822.00
2018-11-22T21:01:42.622Z,100820.00
2018-11-22T21:04:24.467Z,100822.00
2018-11-22T21:07:06.856Z,100817.00
2018-11-22T21:09:48.849Z,100820.00
2018-11-22T21:12:31.386Z,100818.00
2018-11-22T21:15:17.291Z,100822.00
2018-11-22T21:18:00.835Z,100818.00
2018-11-22T21:20:42.849Z,100815.00
2018-11-22T21:23:24.672Z,100815.00
2018-11-22T21:26:14.107Z,100821.00
2018-11-22T21:28:49.133Z,100824.00
2018-11-22T21:31:30.941Z,100820.00
2018-11-22T21:34:13.246Z,100823.00
2018-11-22T21:36:55.192Z,100825.00
2018-11-22T21:39:37.182Z,100828.00
2018-11-22T21:42:19.122Z,100831.00
2018-11-22T21:45:01.295Z,100831.00
2018-11-22T21:47:43.836Z,100834.00
2018-11-22T21:50:26.906Z,100835.00
2018-11-22T21:53:09.225Z,100837.00
2018-11-22T21:55:51.442Z,100832.00
2018-11-22T21:58:34.478Z,100828.00
2018-11-22T22:01:16.741Z,100835.00
2018-11-22T22:03:59.039Z,100833.00
2018-11-22T22:06:41.135Z,100832.00
2018-11-22T22:09:23.454Z,100839.00
2018-11-22T22:12:05.623Z,100831.00
2018-11-22T22:14:47.712Z,100829.00
2018-11-22T22:17:29.859Z,100831.00
2018-11-22T22:20:17.475Z,100831.00
2018-11-22T22:23:00.407Z,100835.00
2018-11-22T22:25:42.307Z,100832.00
2018-11-22T22:28:24.275Z,100828.00
2018-11-22T22:31:06.561Z,100831.00
2018-11-22T22:33:48.825Z,100829.00
2018-11-22T22:36:31.072Z,100836.00
2018-11-22T22:39:13.310Z,100832.00
2018-11-22T22:41:55.613Z,100835.00
2018-11-22T22:44:37.449Z,100834.00
2018-11-22T22:47:19.871Z,100836.00
2018-11-22T22:50:01.808Z,100833.00
2018-11-22T22:52:44.005Z,100837.00
2018-11-22T22:55:25.826Z,100838.00
2018-11-22T22:58:08.276Z,100836.00
2018-11-22T23:00:51.294Z,100840.00
2018-11-22T23:03:33.046Z,100837.00
2018-11-22T23:06:15.683Z,100832.00
2018-11-22T23:08:58.043Z,100832.00
2018-11-22T23:11:39.822Z,100833.00
2018-11-22T23:14:21.960Z,100835.00
2018-11-22T23:17:03.674Z,100831.00
2018-11-22T23:19:45.642Z,100826.00
2018-11-22T23:22:27.383Z,100825.00
2018-11-22T23:25:10.406Z,100820.00
2018-11-22T23:27:52.158Z,100818.00
2018-11-22T23:30:35.279Z,100816.00
2018-11-22T23:33:17.526Z,100816.00
2018-11-22T23:35:59.804Z,100821.00
2018-11-22T23:38:41.892Z,100825.00
2018-11-22T23:41:23.848Z,100821.00
2018-11-22T23:44:06.778Z,100826.00
2018-11-22T23:46:49.003Z,100819.00
2018-11-22T23:49:30.847Z,100824.00
2018-11-22T23:52:12.937Z,100823.00
2018-11-22T23:54:54.782Z,100820.00
2018-11-22T23:57:37.482Z,100826.00
